createdAt,value
2022-08-17T00:03:20.332Z,100836.41
2022-08-17T00:08:32.780Z,100832.03
2022-08-17T00:13:38.825Z,100819.66
2022-08-17T00:19:01.382Z,100817.88
2022-08-17T00:24:09.381Z,100814.38
2022-08-17T00:29:17.865Z,100809.09
2022-08-17T00:34:25.452Z,100808.19
2022-08-17T00:39:34.673Z,100795.00
2022-08-17T00:44:38.428Z,100801.19
2022-08-17T00:49:43.816Z,100802.00
2022-08-17T00:54:52.876Z,100809.03
2022-08-17T01:00:03.248Z,100798.50
2022-08-17T01:05:13.549Z,100792.47
2022-08-17T01:10:59.497Z,100786.31
2022-08-17T01:15:54.109Z,100779.31
2022-08-17T01:21:03.146Z,100777.53
2022-08-17T01:26:10.156Z,100765.25
2022-08-17T01:31:14.287Z,100757.34
2022-08-17T01:36:21.082Z,100758.22
2022-08-17T01:41:26.275Z,100757.38
2022-08-17T01:46:33.426Z,100761.78
2022-08-17T01:51:38.760Z,100775.87
2022-08-17T01:56:47.778Z,100768.00
2022-08-17T02:01:52.892Z,100768.00
2022-08-17T02:06:56.691Z,100771.56
2022-08-17T02:12:37.322Z,100766.28
2022-08-17T02:17:29.687Z,100766.31
2022-08-17T02:22:33.447Z,100764.56
2022-08-17T02:27:39.837Z,100759.28
2022-08-17T02:32:43.571Z,100761.94
2022-08-17T02:37:48.947Z,100758.41
2022-08-17T02:43:02.515Z,100758.44
2022-08-17T02:48:06.902Z,100746.16
2022-08-17T02:53:10.643Z,100747.94
2022-08-17T02:58:17.529Z,100741.78
2022-08-17T03:03:41.177Z,100745.28
2022-08-17T03:08:44.886Z,100742.66
2022-08-17T03:13:50.008Z,100738.31
2022-08-17T03:18:55.159Z,100746.19
2022-08-17T03:23:58.877Z,100762.03
2022-08-17T03:29:04.220Z,100778.72
2022-08-17T03:34:07.972Z,100776.97
2022-08-17T03:39:11.763Z,100780.50
2022-08-17T03:44:17.503Z,100776.13
2022-08-17T03:55:00.727Z,100789.31
2022-08-17T04:00:08.564Z,100796.34
2022-08-17T04:05:16.025Z,100806.87
2022-08-17T04:10:21.831Z,100802.50
2022-08-17T04:15:30.938Z,100804.28
2022-08-17T04:20:36.269Z,100809.53
2022-08-17T04:25:43.899Z,100803.44
2022-08-17T04:30:49.425Z,100804.31
2022-08-17T04:35:56.520Z,100820.13
2022-08-17T04:41:19.108Z,100817.47
2022-08-17T04:46:26.523Z,100822.69
2022-08-17T04:51:32.698Z,100831.47
2022-08-17T04:56:37.302Z,100839.38
2022-08-17T05:01:45.453Z,100834.09
2022-08-17T05:06:50.424Z,100818.34
2022-08-17T05:11:55.295Z,100840.25
2022-08-17T05:17:01.443Z,100842.88
2022-08-17T05:22:06.168Z,100848.16
2022-08-17T05:27:09.838Z,100841.13
2022-08-17T05:32:37.772Z,100835.00
2022-08-17T05:37:43.288Z,100816.56
2022-08-17T05:42:47.074Z,100810.44
2022-08-17T05:47:52.391Z,100814.84
2022-08-17T05:53:04.455Z,100808.69
2022-08-17T05:58:21.245Z,100813.06
2022-08-17T06:03:40.121Z,100827.06
2022-08-17T06:08:51.513Z,100837.59
2022-08-17T06:14:11.078Z,100844.63
2022-08-17T06:19:19.877Z,100849.91
2022-08-17T06:24:34.207Z,100844.63
2022-08-17T06:29:45.097Z,100840.25
2022-08-17T06:34:50.364Z,100848.13
2022-08-17T06:39:59.909Z,100851.63
2022-08-17T06:45:08.497Z,100856.91
2022-08-17T06:50:20.459Z,100863.00
2022-08-17T06:55:33.187Z,100865.66
2022-08-17T07:00:43.491Z,100879.66
2022-08-17T07:05:53.065Z,100884.06
2022-08-17T07:11:03.306Z,100896.34
2022-08-17T07:16:25.840Z,100894.59
2022-08-17T07:21:44.940Z,100894.59
2022-08-17T07:31:56.211Z,100890.22
2022-08-17T07:37:05.418Z,100904.25
2022-08-17T07:42:11.259Z,100920.06
2022-08-17T07:47:35.576Z,100924.44
2022-08-17T07:52:50.751Z,100927.06
2022-08-17T07:57:57.388Z,100927.06
2022-08-17T08:03:12.302Z,100919.16
2022-08-17T08:08:29.552Z,100917.41
2022-08-17T08:13:33.617Z,100920.03
2022-08-17T08:18:55.606Z,100933.16
2022-08-17T08:24:16.079Z,100932.28
2022-08-17T08:29:29.301Z,100926.94
2022-08-17T08:34:58.894Z,100932.25
2022-08-17T08:40:21.536Z,100931.31
2022-08-17T08:45:31.885Z,100926.97
2022-08-17T08:50:46.607Z,100925.13
2022-08-17T08:55:56.405Z,100925.09
2022-08-17T09:01:02.689Z,100910.00
2022-08-17T09:06:33.600Z,100908.09
2022-08-17T09:12:02.759Z,100911.53
2022-08-17T09:17:13.803Z,100929.16
2022-08-17T09:22:31.341Z,100949.25
2022-08-17T09:27:47.556Z,100941.31
2022-08-17T09:32:55.577Z,100947.41
2022-08-17T09:38:02.891Z,100964.09
2022-08-17T09:43:17.976Z,100969.44
2022-08-17T09:48:27.559Z,100975.59
2022-08-17T09:53:32.214Z,100964.94
2022-08-17T09:58:51.299Z,100964.06
2022-08-17T10:04:11.377Z,100972.94
2022-08-17T10:09:23.102Z,100992.47
2022-08-17T10:14:37.653Z,101015.34
2022-08-17T10:19:54.971Z,101010.16
2022-08-17T10:25:22.261Z,101015.44
2022-08-17T10:30:33.845Z,101019.06
2022-08-17T10:35:48.721Z,101001.56
2022-08-17T10:40:58.410Z,100995.44
2022-08-17T10:46:30.394Z,101005.19
2022-08-17T10:51:38.871Z,100996.41
2022-08-17T10:56:52.276Z,100994.62
2022-08-17T11:02:12.248Z,100997.28
2022-08-17T11:07:27.924Z,100993.75
2022-08-17T11:12:39.312Z,100999.91
2022-08-17T11:18:14.170Z,100998.19
2022-08-17T11:23:33.598Z,100995.53
2022-08-17T11:28:48.772Z,100980.59
2022-08-17T11:34:02.285Z,100966.53
2022-08-17T11:39:18.572Z,100958.63
2022-08-17T11:44:37.779Z,100958.63
2022-08-17T11:50:19.029Z,100983.22
2022-08-17T11:56:00.021Z,100995.53
2022-08-17T12:01:06.019Z,100995.53
2022-08-17T12:06:22.022Z,100992.00
2022-08-17T12:11:58.683Z,101002.56
2022-08-17T12:17:04.046Z,101012.22
2022-08-17T12:22:18.868Z,101028.03
2022-08-17T12:27:47.673Z,101031.53
2022-08-17T12:32:51.278Z,101034.19
2022-08-17T12:37:58.201Z,101047.31
2022-08-17T12:43:05.347Z,101054.25
2022-08-17T12:48:12.398Z,101054.25
2022-08-17T12:53:22.530Z,101052.47
2022-08-17T12:58:33.706Z,101052.38
2022-08-17T13:03:41.697Z,101047.16
2022-08-17T13:08:49.023Z,101050.66
2022-08-17T13:13:56.015Z,101043.63
2022-08-17T13:19:08.700Z,101039.25
2022-08-17T13:24:20.463Z,101038.38
2022-08-17T13:29:27.461Z,101045.34
2022-08-17T13:35:11.832Z,101035.72
2022-08-17T13:40:31.269Z,101032.25
2022-08-17T13:45:38.885Z,101027.00
2022-08-17T13:50:44.032Z,101019.16
2022-08-17T13:55:52.717Z,101009.56
2022-08-17T14:00:56.915Z,101006.97
2022-08-17T14:06:00.711Z,101002.56
2022-08-17T14:11:05.894Z,100998.19
2022-08-17T14:16:09.685Z,100998.19
2022-08-17T14:21:14.096Z,100990.28
2022-08-17T14:26:19.283Z,100999.03
2022-08-17T14:31:23.121Z,100991.16
2022-08-17T14:36:27.119Z,100999.06
2022-08-17T14:41:32.487Z,100992.94
2022-08-17T14:46:36.935Z,100986.78
2022-08-17T14:51:43.815Z,100990.28
2022-08-17T14:56:49.643Z,100992.00
2022-08-17T15:02:04.817Z,100996.41
2022-08-17T15:07:09.001Z,101004.31
2022-08-17T15:12:18.988Z,101015.75
2022-08-17T15:17:23.334Z,101002.59
2022-08-17T15:22:28.085Z,101022.75
2022-08-17T15:27:34.744Z,101024.50
2022-08-17T15:32:40.596Z,101020.97
2022-08-17T15:37:45.087Z,101013.94
2022-08-17T15:42:51.086Z,101013.06
2022-08-17T15:47:55.253Z,101028.78
2022-08-17T15:53:00.541Z,101020.03
2022-08-17T15:58:06.373Z,101013.88
2022-08-17T16:03:45.925Z,101009.47
2022-08-17T16:08:34.279Z,100996.34
2022-08-17T16:13:40.663Z,100989.34
2022-08-17T16:18:44.837Z,100991.97
2022-08-17T16:23:49.584Z,100985.84
2022-08-17T16:28:54.804Z,100977.09
2022-08-17T16:34:15.848Z,100982.37
2022-08-17T16:39:22.214Z,100992.91
2022-08-17T16:44:28.992Z,100997.31
2022-08-17T16:49:37.164Z,100989.41
2022-08-17T16:54:46.683Z,100992.91
2022-08-17T16:59:53.112Z,100997.31
2022-08-17T17:05:03.877Z,101006.06
2022-08-17T17:10:11.342Z,101020.91
2022-08-17T17:15:21.987Z,101034.03
2022-08-17T17:20:35.429Z,101039.28
2022-08-17T17:25:48.840Z,101040.13
2022-08-17T17:31:02.319Z,101034.84
2022-08-17T17:36:09.780Z,101049.75
2022-08-17T17:41:26.514Z,101054.13
2022-08-17T17:46:37.819Z,101058.44
2022-08-17T17:52:05.915Z,101048.38
2022-08-17T17:57:22.359Z,101041.66
2022-08-17T18:02:52.572Z,101044.19
2022-08-17T18:08:11.091Z,101039.81
2022-08-17T18:13:26.704Z,101033.63
2022-08-17T18:18:44.609Z,101032.75
2022-08-17T18:23:52.947Z,101037.13
2022-08-17T18:28:56.918Z,101019.56
2022-08-17T18:34:43.772Z,101024.78
2022-08-17T18:39:46.418Z,101022.12
2022-08-17T18:44:54.760Z,101043.00
2022-08-17T18:50:24.233Z,101025.56
2022-08-17T18:55:30.265Z,101028.22
2022-08-17T19:00:38.335Z,101035.22
2022-08-17T19:05:43.918Z,101051.84
2022-08-17T19:10:51.405Z,101069.28
2022-08-17T19:16:12.181Z,101084.19
2022-08-17T19:21:22.578Z,101099.94
2022-08-17T19:26:53.883Z,101113.16
2022-08-17T19:31:55.193Z,101114.00
2022-08-17T19:37:03.516Z,101113.06
2022-08-17T19:42:17.276Z,101112.25
2022-08-17T19:47:53.352Z,101107.00
2022-08-17T19:53:00.291Z,101106.16
2022-08-17T19:58:12.148Z,101103.47
2022-08-17T20:03:26.680Z,101110.47
2022-08-17T20:08:35.588Z,101108.75
2022-08-17T20:13:43.977Z,101115.75
2022-08-17T20:18:56.339Z,101111.34
2022-08-17T20:24:06.434Z,101114.81
2022-08-17T20:29:37.686Z,101106.84
2022-08-17T20:34:48.314Z,101106.84
2022-08-17T20:40:21.227Z,101106.72
2022-08-17T20:45:49.453Z,101110.19
2022-08-17T20:50:58.949Z,101096.16
2022-08-17T20:56:03.029Z,101087.34
2022-08-17T21:01:20.126Z,101103.88
2022-08-17T21:06:26.269Z,101103.84
2022-08-17T21:12:04.527Z,101106.41
2022-08-17T21:17:38.379Z,101117.78
2022-08-17T21:22:56.475Z,101120.25
2022-08-17T21:28:15.679Z,101129.88
2022-08-17T21:33:27.935Z,101127.22
2022-08-17T21:38:37.248Z,101128.13
2022-08-17T21:43:48.951Z,101138.50
2022-08-17T21:48:59.219Z,101122.03
2022-08-17T21:54:14.256Z,101117.72
2022-08-17T21:59:27.254Z,101123.88
2022-08-17T22:04:34.220Z,101143.03
2022-08-17T22:09:44.838Z,101147.34
2022-08-17T22:15:00.436Z,101147.44
2022-08-17T22:20:14.254Z,101150.06
2022-08-17T22:25:22.308Z,101158.84
2022-08-17T22:30:33.495Z,101157.16
2022-08-17T22:35:42.712Z,101165.09
2022-08-17T22:40:49.738Z,101158.13
2022-08-17T22:46:00.352Z,101159.91
2022-08-17T22:51:12.890Z,101163.44
2022-08-17T22:56:37.080Z,101153.75
2022-08-17T23:01:41.876Z,101155.41
2022-08-17T23:06:51.469Z,101157.06
2022-08-17T23:11:58.753Z,101157.88
2022-08-17T23:17:02.623Z,101155.25
2022-08-17T23:22:09.888Z,101146.44
2022-08-17T23:27:13.999Z,101166.59
2022-08-17T23:32:19.572Z,101157.84
2022-08-17T23:37:27.069Z,101150.00
2022-08-17T23:42:30.863Z,101156.97
2022-08-17T23:47:35.544Z,101156.91
2022-08-17T23:52:41.391Z,101161.22
2022-08-17T23:57:46.653Z,101170.84
